Time;durP1;ratioP1;P1;durP2;ratioP2;P2;SDS_P1;SDS_P2;PMS_P1;PMS_P2;Temp;Humidity;BMP_temperature;BMP_pressure;BME280_temperature;BME280_humidity;BME280_pressure;Samples;Min_cycle;Max_cycle;Signal;HPM_P1;HPM_P2
2022/03/07 00:00:34;;;;;;;44.08;22.35;;;6.40;70.50;;;;;;5005481;28;20060;-64
2022/03/07 00:02:59;;;;;;;41.58;21.23;;;6.30;70.40;;;;;;5020795;28;20045;-62
2022/03/07 00:05:25;;;;;;;49.25;21.85;;;6.30;70.60;;;;;;5022896;28;20017;-64
2022/03/07 00:07:51;;;;;;;45.72;22.50;;;6.30;70.60;;;;;;5007433;28;21407;-63
2022/03/07 00:10:17;;;;;;;35.72;21.58;;;6.30;70.60;;;;;;5024366;28;20030;-63
2022/03/07 00:12:42;;;;;;;46.05;21.95;;;6.30;70.60;;;;;;5022177;28;20045;-64
2022/03/07 00:15:08;;;;;;;42.78;21.58;;;6.30;70.70;;;;;;5019794;28;20041;-62
2022/03/07 00:17:34;;;;;;;44.35;21.92;;;6.30;70.70;;;;;;5021315;28;20045;-62
2022/03/07 00:19:59;;;;;;;42.55;21.95;;;6.30;70.70;;;;;;5022808;28;20037;-62
2022/03/07 00:22:25;;;;;;;39.00;21.42;;;6.30;70.80;;;;;;4989453;28;20468;-62
2022/03/07 00:24:50;;;;;;;40.63;21.65;;;6.20;70.60;;;;;;5023830;28;20327;-62
2022/03/07 00:27:16;;;;;;;40.00;21.70;;;6.20;70.60;;;;;;5023565;28;20029;-62
2022/03/07 00:29:41;;;;;;;36.45;21.55;;;6.20;70.70;;;;;;5021895;28;20124;-62
2022/03/07 00:32:07;;;;;;;32.85;19.63;;;6.20;70.70;;;;;;5022886;28;20120;-62
2022/03/07 00:34:32;;;;;;;38.58;22.10;;;6.20;70.60;;;;;;5022900;28;20052;-63
2022/03/07 00:36:58;;;;;;;34.08;19.70;;;6.20;70.50;;;;;;5020157;28;20029;-62
2022/03/07 00:39:23;;;;;;;45.42;22.25;;;6.20;70.40;;;;;;5022614;28;20346;-62
2022/03/07 00:41:49;;;;;;;41.58;22.35;;;6.10;70.50;;;;;;5019533;28;20038;-62
2022/03/07 00:44:14;;;;;;;45.50;21.40;;;6.10;70.50;;;;;;5023350;28;20033;-64
2022/03/07 00:46:40;;;;;;;36.45;20.45;;;6.10;70.70;;;;;;5021944;28;20041;-63
2022/03/07 00:49:05;;;;;;;40.67;21.23;;;6.10;70.60;;;;;;5025355;28;20033;-62
2022/03/07 00:51:31;;;;;;;38.38;19.25;;;6.00;70.50;;;;;;5022952;28;20401;-61
2022/03/07 00:53:56;;;;;;;36.92;21.92;;;6.00;70.60;;;;;;5020234;28;20046;-62
2022/03/07 00:56:22;;;;;;;36.45;20.98;;;6.00;70.70;;;;;;5020979;28;20041;-62
2022/03/07 00:58:47;;;;;;;38.47;20.27;;;6.00;70.70;;;;;;4988744;28;20037;-64
2022/03/07 01:01:13;;;;;;;34.75;21.42;;;5.90;70.70;;;;;;5022290;28;20033;-64
2022/03/07 01:03:39;;;;;;;33.38;20.48;;;5.90;71.30;;;;;;5024729;28;20604;-62
2022/03/07 01:06:04;;;;;;;33.88;20.67;;;5.90;70.90;;;;;;5022217;28;20029;-61
2022/03/07 01:08:30;;;;;;;31.52;21.17;;;5.90;70.80;;;;;;5022504;28;20079;-59
2022/03/07 01:10:55;;;;;;;34.55;19.77;;;5.80;70.70;;;;;;5021867;28;20099;-61
2022/03/07 01:13:22;;;;;;;33.33;20.00;;;5.90;70.80;;;;;;5006909;28;20599;-60
2022/03/07 01:15:47;;;;;;;34.50;19.45;;;5.80;70.70;;;;;;5021034;28;20068;-59
2022/03/07 01:18:13;;;;;;;35.05;20.05;;;5.80;70.70;;;;;;4988110;28;20441;-61
2022/03/07 01:20:38;;;;;;;29.83;18.73;;;5.80;70.70;;;;;;5020840;28;20049;-64
2022/03/07 01:23:04;;;;;;;30.52;19.70;;;5.70;70.80;;;;;;5021092;28;20026;-64
2022/03/07 01:25:29;;;;;;;31.33;19.77;;;5.70;70.80;;;;;;5023350;28;20034;-62
2022/03/07 01:27:55;;;;;;;32.28;19.27;;;5.70;70.90;;;;;;5006520;28;20087;-63
2022/03/07 01:30:21;;;;;;;35.67;19.25;;;5.70;70.90;;;;;;4989434;28;20143;-63
2022/03/07 01:32:46;;;;;;;32.13;19.60;;;5.70;70.90;;;;;;5022084;28;20049;-64
2022/03/07 01:35:12;;;;;;;29.33;19.38;;;5.70;70.90;;;;;;5021319;28;20038;-63
2022/03/07 01:37:38;;;;;;;30.83;18.98;;;5.60;70.80;;;;;;5005254;28;20539;-63
2022/03/07 01:40:04;;;;;;;32.10;18.95;;;5.60;70.90;;;;;;5022371;28;20614;-62
2022/03/07 01:42:29;;;;;;;29.02;18.83;;;5.60;70.90;;;;;;5022111;28;20033;-62
2022/03/07 01:45:05;;;;;;;31.90;18.17;;;5.60;70.90;;;;;;5020665;28;20030;-63
2022/03/07 01:47:33;;;;;;;31.90;19.10;;;5.60;70.80;;;;;;5020337;28;20046;-62
2022/03/07 01:49:58;;;;;;;28.05;19.30;;;5.60;70.90;;;;;;5020680;28;20116;-62
2022/03/07 01:52:24;;;;;;;29.58;18.88;;;5.50;70.90;;;;;;5022360;28;20116;-62
2022/03/07 01:54:49;;;;;;;32.08;19.13;;;5.60;71.00;;;;;;5023401;28;20031;-63
2022/03/07 01:57:15;;;;;;;26.75;17.05;;;5.60;70.90;;;;;;5022498;28;20064;-62
2022/03/07 01:59:40;;;;;;;29.25;18.17;;;5.50;70.90;;;;;;5019897;28;20036;-62
2022/03/07 02:02:06;;;;;;;29.55;19.52;;;5.50;70.90;;;;;;5019774;28;20484;-64
2022/03/07 02:04:31;;;;;;;29.27;17.77;;;5.50;70.90;;;;;;5005527;28;20037;-62
2022/03/07 02:06:57;;;;;;;25.27;17.45;;;5.50;70.80;;;;;;5023294;28;20033;-61
2022/03/07 02:09:22;;;;;;;28.00;19.10;;;5.50;70.90;;;;;;5023413;28;20079;-64
2022/03/07 02:11:48;;;;;;;29.67;18.60;;;5.50;70.90;;;;;;5020475;28;20535;-63
2022/03/07 02:14:14;;;;;;;31.25;17.60;;;5.50;70.90;;;;;;5020981;28;20087;-65
2022/03/07 02:16:40;;;;;;;29.17;18.35;;;5.50;71.00;;;;;;5021903;28;20461;-64
2022/03/07 02:19:05;;;;;;;31.20;17.98;;;5.40;70.80;;;;;;5021959;28;20037;-62
2022/03/07 02:21:32;;;;;;;31.33;17.60;;;5.40;70.80;;;;;;5021788;28;20033;-64
2022/03/07 02:23:57;;;;;;;26.67;18.13;;;5.50;70.80;;;;;;5003844;28;20028;-62
2022/03/07 02:26:23;;;;;;;30.23;19.27;;;5.40;70.80;;;;;;5020175;28;20041;-64
2022/03/07 02:28:48;;;;;;;25.02;17.80;;;5.40;70.80;;;;;;5019072;28;20018;-64
2022/03/07 02:31:18;;;;;;;31.58;18.73;;;5.40;70.90;;;;;;5020358;28;20042;-63
2022/03/07 02:33:44;;;;;;;26.60;18.48;;;5.40;70.80;;;;;;5022231;28;20346;-62
2022/03/07 02:36:09;;;;;;;28.98;17.85;;;5.40;70.80;;;;;;5021309;28;20028;-64
2022/03/07 02:38:35;;;;;;;28.73;17.83;;;5.40;70.80;;;;;;5021852;28;20120;-64
2022/03/07 02:41:01;;;;;;;31.02;18.83;;;5.30;70.80;;;;;;5019772;28;20064;-61
2022/03/07 02:43:26;;;;;;;27.88;17.38;;;5.30;70.80;;;;;;5004337;28;20025;-62
2022/03/07 02:45:52;;;;;;;28.52;17.20;;;5.30;70.80;;;;;;5020504;28;20064;-62
2022/03/07 02:48:18;;;;;;;23.00;17.10;;;5.30;70.70;;;;;;5017153;28;20030;-62
2022/03/07 02:50:45;;;;;;;27.27;17.67;;;5.30;70.70;;;;;;5021238;28;20648;-63
2022/03/07 02:53:10;;;;;;;25.05;17.77;;;5.20;70.70;;;;;;5018605;28;20231;-63
2022/03/07 02:55:36;;;;;;;26.15;17.63;;;5.20;70.70;;;;;;5021963;28;20520;-62
2022/03/07 02:58:01;;;;;;;22.58;17.05;;;5.20;70.60;;;;;;5021089;28;20049;-62
2022/03/07 03:00:27;;;;;;;25.55;17.45;;;5.20;70.70;;;;;;5018293;28;20128;-63
2022/03/07 03:02:53;;;;;;;27.98;16.98;;;5.20;70.70;;;;;;5018406;28;20039;-64
2022/03/07 03:05:18;;;;;;;24.73;17.58;;;5.20;70.70;;;;;;5018089;28;20136;-61
2022/03/07 03:07:44;;;;;;;25.80;17.30;;;5.20;70.70;;;;;;5019162;28;20125;-62
2022/03/07 03:10:09;;;;;;;24.30;16.10;;;5.20;70.70;;;;;;5004714;28;20569;-62
2022/03/07 03:12:35;;;;;;;26.83;17.48;;;5.20;70.70;;;;;;5003240;28;20117;-64
2022/03/07 03:15:00;;;;;;;21.88;15.88;;;5.20;70.70;;;;;;5020160;28;20033;-61
2022/03/07 03:17:26;;;;;;;22.48;15.77;;;5.10;70.60;;;;;;5019636;28;20497;-61
2022/03/07 03:19:53;;;;;;;26.88;16.98;;;5.10;70.60;;;;;;5015443;28;20669;-63
2022/03/07 03:22:19;;;;;;;26.52;15.88;;;5.10;70.60;;;;;;5018333;28;20065;-62
2022/03/07 03:24:45;;;;;;;24.05;17.13;;;5.10;70.70;;;;;;5019559;28;20017;-62
2022/03/07 03:27:11;;;;;;;26.38;17.05;;;5.10;70.80;;;;;;5003969;28;20488;-61
2022/03/07 03:29:36;;;;;;;23.67;17.35;;;5.10;70.70;;;;;;5020563;28;20083;-62
2022/03/07 03:32:02;;;;;;;26.27;16.35;;;5.00;70.70;;;;;;5018906;28;20115;-63
2022/03/07 03:34:28;;;;;;;23.55;16.30;;;5.10;70.70;;;;;;5019403;28;20044;-62
2022/03/07 03:36:53;;;;;;;26.77;16.67;;;5.00;70.70;;;;;;5021590;28;20066;-63
2022/03/07 03:39:19;;;;;;;22.83;16.27;;;5.00;70.70;;;;;;5022154;28;20033;-62
2022/03/07 03:41:44;;;;;;;22.75;16.27;;;5.00;70.80;;;;;;5022494;28;20053;-63
2022/03/07 03:44:10;;;;;;;23.67;15.75;;;5.00;70.80;;;;;;5024810;28;20037;-64
2022/03/07 03:46:37;;;;;;;20.55;15.50;;;5.00;70.70;;;;;;5024238;28;21346;-64
2022/03/07 03:49:02;;;;;;;21.48;15.55;;;5.00;70.70;;;;;;5025688;28;20037;-62
2022/03/07 03:51:28;;;;;;;23.08;15.80;;;4.90;70.70;;;;;;5022811;28;20029;-63
2022/03/07 03:53:53;;;;;;;21.50;15.63;;;4.90;70.80;;;;;;5023374;28;20078;-63
2022/03/07 03:56:19;;;;;;;22.23;15.32;;;4.90;70.70;;;;;;5023138;28;20428;-62
2022/03/07 03:58:44;;;;;;;26.08;16.83;;;4.90;70.70;;;;;;5022922;28;20054;-63
2022/03/07 04:01:10;;;;;;;19.38;14.70;;;4.90;70.90;;;;;;5023332;28;20033;-63
2022/03/07 04:03:35;;;;;;;20.92;15.18;;;4.90;70.70;;;;;;5026030;28;20792;-63
2022/03/07 04:06:03;;;;;;;22.00;16.65;;;4.80;70.70;;;;;;5023164;28;20414;-64
2022/03/07 04:08:32;;;;;;;26.25;16.73;;;4.90;70.80;;;;;;5022499;28;20013;-64
2022/03/07 04:10:58;;;;;;;20.73;16.02;;;4.80;70.70;;;;;;5014906;28;20046;-63
2022/03/07 04:13:23;;;;;;;22.13;15.38;;;4.80;70.60;;;;;;5003910;28;20473;-62
2022/03/07 04:15:49;;;;;;;19.88;16.08;;;4.90;70.70;;;;;;5024208;28;20030;-62
2022/03/07 04:18:14;;;;;;;22.38;16.10;;;4.80;70.70;;;;;;5023086;28;20024;-61
2022/03/07 04:20:40;;;;;;;21.40;16.70;;;4.80;70.70;;;;;;5023497;28;20029;-62
2022/03/07 04:23:06;;;;;;;20.95;15.65;;;4.80;70.80;;;;;;5005843;28;21390;-64
2022/03/07 04:25:33;;;;;;;19.55;14.70;;;4.80;70.70;;;;;;5022695;28;20045;-62
2022/03/07 04:27:59;;;;;;;21.58;15.90;;;4.70;70.60;;;;;;5006497;28;20438;-64
2022/03/07 04:30:24;;;;;;;18.92;14.68;;;4.70;70.70;;;;;;5023851;28;20059;-62
2022/03/07 04:32:50;;;;;;;19.05;14.50;;;4.70;70.70;;;;;;5023548;28;20041;-64
2022/03/07 04:35:16;;;;;;;17.52;14.77;;;4.70;70.80;;;;;;5022526;28;20156;-62
2022/03/07 04:37:41;;;;;;;21.70;15.55;;;4.70;70.80;;;;;;5022922;28;20048;-63
2022/03/07 04:40:16;;;;;;;19.92;15.88;;;4.70;70.70;;;;;;5021730;28;20485;-63
2022/03/07 04:42:43;;;;;;;19.92;14.85;;;4.70;70.80;;;;;;5004590;28;20121;-64
2022/03/07 04:45:10;;;;;;;21.10;15.07;;;4.60;70.70;;;;;;5021420;28;20096;-63
2022/03/07 04:47:36;;;;;;;19.08;14.68;;;4.70;70.90;;;;;;4988663;28;20358;-62
2022/03/07 04:50:01;;;;;;;20.27;14.73;;;4.70;70.80;;;;;;5021982;28;20037;-63
2022/03/07 04:52:27;;;;;;;21.52;15.27;;;4.60;70.80;;;;;;5019802;28;20041;-65
2022/03/07 04:54:52;;;;;;;21.15;15.38;;;4.70;70.90;;;;;;5021069;28;20430;-62
2022/03/07 04:57:18;;;;;;;25.85;14.82;;;4.60;70.80;;;;;;5019898;28;20071;-63
2022/03/07 04:59:45;;;;;;;21.92;14.68;;;4.60;70.60;;;;;;5020733;28;20118;-61
2022/03/07 05:02:11;;;;;;;20.67;14.73;;;4.60;70.60;;;;;;5020605;28;20041;-64
2022/03/07 05:04:37;;;;;;;19.70;15.10;;;4.60;70.60;;;;;;5003323;28;20169;-63
2022/03/07 05:07:03;;;;;;;19.70;14.65;;;4.60;70.70;;;;;;5019537;28;20508;-62
2022/03/07 05:09:28;;;;;;;17.40;13.70;;;4.60;70.70;;;;;;5018189;28;20102;-65
2022/03/07 05:11:54;;;;;;;18.77;14.13;;;4.60;70.70;;;;;;5022153;28;20108;-64
2022/03/07 05:14:19;;;;;;;18.90;14.15;;;4.50;70.60;;;;;;5023087;28;20045;-62
2022/03/07 05:16:45;;;;;;;17.58;14.55;;;4.50;70.50;;;;;;5023138;28;20041;-61
2022/03/07 05:19:10;;;;;;;17.80;14.50;;;4.50;70.60;;;;;;5021470;28;20101;-61
2022/03/07 05:21:36;;;;;;;19.40;14.82;;;4.50;70.60;;;;;;5022532;28;20018;-63
2022/03/07 05:24:02;;;;;;;18.73;14.30;;;4.50;70.60;;;;;;5023115;28;20504;-61
2022/03/07 05:26:27;;;;;;;19.55;14.60;;;4.50;70.70;;;;;;5022812;28;20072;-61
2022/03/07 05:28:53;;;;;;;19.13;14.48;;;4.50;70.70;;;;;;5022542;28;20584;-62
2022/03/07 05:31:19;;;;;;;17.33;14.05;;;4.50;70.70;;;;;;5021665;28;20056;-61
2022/03/07 05:33:44;;;;;;;18.85;14.40;;;4.50;70.70;;;;;;5022767;28;20535;-61
2022/03/07 05:36:10;;;;;;;18.42;13.73;;;4.40;70.80;;;;;;5023447;28;20033;-62
2022/03/07 05:38:35;;;;;;;18.58;13.65;;;4.40;70.80;;;;;;5022350;28;20061;-63
2022/03/07 05:41:01;;;;;;;20.45;14.35;;;4.40;70.70;;;;;;5022157;28;20036;-63
2022/03/07 05:43:26;;;;;;;16.35;13.77;;;4.40;70.80;;;;;;5022358;28;20654;-63
2022/03/07 05:45:52;;;;;;;16.95;13.27;;;4.40;70.70;;;;;;5023419;28;20037;-63
2022/03/07 05:48:17;;;;;;;16.35;13.48;;;4.40;71.00;;;;;;5021070;28;20111;-63
2022/03/07 05:50:43;;;;;;;15.63;12.93;;;4.40;71.60;;;;;;5020821;28;20075;-63
2022/03/07 05:53:08;;;;;;;17.60;14.23;;;4.40;71.00;;;;;;5018421;28;20365;-63
2022/03/07 05:55:34;;;;;;;19.65;14.25;;;4.40;71.00;;;;;;5021700;28;20536;-61
2022/03/07 05:58:00;;;;;;;16.75;13.07;;;4.40;71.00;;;;;;5020969;28;20526;-63
2022/03/07 06:00:26;;;;;;;18.15;13.75;;;4.40;70.90;;;;;;5004613;28;20029;-63
2022/03/07 06:02:51;;;;;;;17.83;13.13;;;4.30;71.00;;;;;;5019243;28;20045;-63
2022/03/07 06:05:18;;;;;;;17.08;13.80;;;4.30;71.10;;;;;;5019526;28;20307;-63
2022/03/07 06:07:43;;;;;;;19.23;14.30;;;4.30;71.30;;;;;;5020831;28;20045;-64
2022/03/07 06:10:09;;;;;;;16.35;13.18;;;4.30;71.40;;;;;;5020798;28;20033;-61
2022/03/07 06:12:35;;;;;;;20.65;14.50;;;4.30;71.40;;;;;;5019714;28;20028;-63
2022/03/07 06:15:03;;;;;;;18.83;14.60;;;4.30;71.60;;;;;;5018625;28;20049;-62
2022/03/07 06:17:30;;;;;;;16.30;13.35;;;4.20;71.50;;;;;;5020819;28;20056;-64
2022/03/07 06:19:56;;;;;;;19.25;13.63;;;4.30;71.60;;;;;;5019659;28;20452;-63
2022/03/07 06:22:21;;;;;;;20.92;13.52;;;4.20;71.60;;;;;;5019118;28;20049;-61
2022/03/07 06:24:47;;;;;;;17.40;14.20;;;4.30;71.90;;;;;;5022955;28;20354;-64
2022/03/07 06:27:12;;;;;;;21.20;14.80;;;4.20;72.20;;;;;;5022330;28;20037;-62
2022/03/07 06:29:38;;;;;;;20.52;14.30;;;4.20;72.10;;;;;;5022478;28;20511;-63
2022/03/07 06:32:03;;;;;;;21.73;14.20;;;4.20;72.20;;;;;;5021184;28;20038;-64
2022/03/07 06:34:33;;;;;;;17.38;13.95;;;4.20;72.10;;;;;;5020437;28;20486;-63
2022/03/07 06:37:00;;;;;;;17.42;14.15;;;4.20;72.20;;;;;;4986828;28;20028;-63
2022/03/07 06:39:27;;;;;;;19.30;13.88;;;4.20;72.20;;;;;;5002177;28;20025;-64
2022/03/07 06:41:56;;;;;;;21.00;14.23;;;4.20;72.20;;;;;;5019600;28;20087;-62
2022/03/07 06:44:22;;;;;;;16.35;13.68;;;4.20;72.30;;;;;;5013018;28;20041;-64
2022/03/07 06:46:48;;;;;;;16.77;13.50;;;4.20;72.40;;;;;;5012062;28;20049;-62
2022/03/07 06:49:13;;;;;;;17.83;14.18;;;4.20;72.40;;;;;;5017412;28;20044;-63
2022/03/07 06:51:39;;;;;;;15.73;13.52;;;4.20;72.50;;;;;;5018329;28;20025;-61
2022/03/07 06:54:05;;;;;;;18.05;14.27;;;4.20;72.60;;;;;;5021195;28;20044;-61
2022/03/07 06:56:30;;;;;;;17.20;14.10;;;4.20;72.60;;;;;;5018358;28;20116;-64
2022/03/07 06:58:56;;;;;;;23.17;14.30;;;4.20;72.60;;;;;;5019491;28;20033;-62
2022/03/07 07:01:21;;;;;;;18.70;14.40;;;4.10;72.70;;;;;;4999002;28;20049;-63
2022/03/07 07:03:47;;;;;;;19.30;14.10;;;4.20;72.70;;;;;;5017813;28;20018;-64
2022/03/07 07:06:13;;;;;;;21.70;14.77;;;4.20;72.60;;;;;;5001574;28;20504;-62
2022/03/07 07:08:38;;;;;;;17.42;14.77;;;4.20;73.20;;;;;;5019989;28;20102;-62
2022/03/07 07:11:04;;;;;;;18.95;14.55;;;4.20;72.60;;;;;;5016749;28;20112;-63
2022/03/07 07:13:29;;;;;;;22.02;14.48;;;4.20;72.50;;;;;;5015814;28;20061;-61
2022/03/07 07:15:55;;;;;;;17.40;13.48;;;4.30;72.60;;;;;;5019737;28;20095;-63
2022/03/07 07:18:22;;;;;;;16.15;13.50;;;4.20;72.50;;;;;;5013377;28;20102;-63
2022/03/07 07:20:50;;;;;;;18.42;14.90;;;4.20;72.50;;;;;;5020759;28;20033;-64
2022/03/07 07:23:15;;;;;;;20.45;13.45;;;4.20;72.50;;;;;;5004566;28;20041;-65
2022/03/07 07:25:41;;;;;;;19.40;14.07;;;4.20;72.70;;;;;;5021046;28;20072;-63
2022/03/07 07:28:06;;;;;;;18.77;14.30;;;4.20;72.40;;;;;;5020933;28;20382;-61
2022/03/07 07:30:32;;;;;;;21.00;14.38;;;4.20;72.20;;;;;;5017653;28;20038;-62
2022/03/07 07:32:57;;;;;;;20.48;14.63;;;4.30;72.20;;;;;;5020348;28;20037;-63
2022/03/07 07:35:23;;;;;;;18.30;14.30;;;4.20;72.40;;;;;;5005629;28;20045;-62
2022/03/07 07:37:48;;;;;;;24.15;14.80;;;4.20;72.40;;;;;;5018330;28;20059;-65
2022/03/07 07:40:14;;;;;;;18.48;13.85;;;4.20;72.70;;;;;;5004670;28;20034;-64
2022/03/07 07:42:40;;;;;;;18.98;13.68;;;4.20;72.80;;;;;;5019160;28;20330;-64
2022/03/07 07:45:06;;;;;;;19.77;14.07;;;4.20;72.70;;;;;;5021106;28;20069;-63
2022/03/07 07:47:31;;;;;;;20.30;15.30;;;4.20;72.90;;;;;;5023790;28;20026;-63
2022/03/07 07:49:57;;;;;;;17.02;14.38;;;4.20;73.20;;;;;;5020365;28;20515;-62
2022/03/07 07:52:22;;;;;;;22.77;14.60;;;4.20;72.70;;;;;;5019663;28;20041;-61
2022/03/07 07:54:48;;;;;;;15.45;13.77;;;4.20;72.50;;;;;;5018791;28;20030;-62
2022/03/07 07:57:14;;;;;;;18.38;13.38;;;4.20;72.30;;;;;;5020761;28;20100;-64
2022/03/07 07:59:39;;;;;;;19.63;14.30;;;4.20;72.20;;;;;;5021404;28;20544;-63
2022/03/07 08:02:05;;;;;;;16.77;13.27;;;4.20;72.20;;;;;;5021857;28;20129;-64
2022/03/07 08:04:30;;;;;;;22.13;15.18;;;4.10;72.10;;;;;;5020662;28;20112;-62
2022/03/07 08:06:56;;;;;;;23.63;14.50;;;4.20;72.20;;;;;;5022351;28;20543;-62
2022/03/07 08:09:21;;;;;;;20.67;13.27;;;4.20;72.20;;;;;;5022054;28;20064;-63
2022/03/07 08:11:47;;;;;;;26.80;15.73;;;4.20;72.20;;;;;;5019721;28;20578;-63
2022/03/07 08:14:12;;;;;;;19.13;14.13;;;4.20;72.30;;;;;;5021533;28;20129;-63
2022/03/07 08:16:38;;;;;;;24.10;15.55;;;4.20;72.60;;;;;;5020420;28;20029;-63
2022/03/07 08:19:03;;;;;;;17.88;14.18;;;4.20;72.40;;;;;;5024170;28;20037;-62
2022/03/07 08:21:29;;;;;;;23.17;14.32;;;4.20;72.20;;;;;;5017009;28;20034;-64
2022/03/07 08:23:54;;;;;;;20.67;13.65;;;4.30;72.20;;;;;;5020832;28;20060;-62
2022/03/07 08:26:20;;;;;;;22.90;13.70;;;4.20;72.30;;;;;;5017787;28;20053;-63
2022/03/07 08:28:46;;;;;;;23.88;14.55;;;4.20;72.30;;;;;;5022781;28;20052;-61
2022/03/07 08:31:11;;;;;;;20.10;14.32;;;4.20;72.20;;;;;;5016414;28;20544;-63
2022/03/07 08:33:37;;;;;;;21.38;14.88;;;4.30;72.30;;;;;;5011627;28;20045;-62
2022/03/07 08:36:03;;;;;;;26.55;14.48;;;4.30;72.70;;;;;;5016621;28;20041;-64
2022/03/07 08:38:28;;;;;;;24.45;14.77;;;4.20;72.30;;;;;;5019122;28;20957;-62
2022/03/07 08:40:54;;;;;;;24.70;15.20;;;4.20;72.20;;;;;;4981582;28;20043;-64
2022/03/07 08:43:20;;;;;;;23.17;14.65;;;4.20;72.20;;;;;;5000708;28;20120;-64
2022/03/07 08:45:45;;;;;;;20.15;15.15;;;4.20;72.30;;;;;;5003845;28;20380;-63
2022/03/07 08:48:11;;;;;;;34.95;15.68;;;4.40;72.40;;;;;;5020420;28;20516;-62
2022/03/07 08:50:36;;;;;;;22.23;14.88;;;4.20;72.30;;;;;;5019638;28;20102;-63
2022/03/07 08:53:02;;;;;;;26.63;14.95;;;4.20;72.40;;;;;;5020675;28;20073;-63
2022/03/07 08:55:27;;;;;;;34.63;16.23;;;4.30;72.50;;;;;;5021436;28;20395;-64
2022/03/07 08:57:53;;;;;;;34.55;13.93;;;4.30;72.70;;;;;;5023287;28;20488;-62
2022/03/07 09:00:18;;;;;;;32.05;15.52;;;4.30;72.50;;;;;;5022873;28;20160;-61
2022/03/07 09:02:44;;;;;;;34.47;15.85;;;4.30;72.40;;;;;;5019016;28;20434;-62
2022/03/07 09:05:09;;;;;;;40.65;15.60;;;4.30;72.30;;;;;;5022787;28;20029;-62
2022/03/07 09:07:35;;;;;;;31.90;16.38;;;4.30;72.30;;;;;;5019959;28;21352;-63
2022/03/07 09:10:01;;;;;;;32.13;15.48;;;4.30;72.30;;;;;;5021034;28;20050;-63
2022/03/07 09:12:28;;;;;;;28.85;15.63;;;4.30;72.40;;;;;;5020451;28;20112;-64
2022/03/07 09:14:57;;;;;;;39.45;16.05;;;4.30;72.20;;;;;;5020811;28;20021;-63
2022/03/07 09:17:23;;;;;;;47.65;17.17;;;4.40;72.40;;;;;;5037144;28;20029;-62
2022/03/07 09:19:48;;;;;;;32.15;15.73;;;4.40;72.70;;;;;;5021682;28;20076;-64
2022/03/07 09:22:14;;;;;;;47.53;16.73;;;4.40;72.50;;;;;;5023584;28;20493;-63
2022/03/07 09:24:39;;;;;;;32.72;16.05;;;4.40;72.40;;;;;;5007310;28;20413;-63
2022/03/07 09:27:05;;;;;;;42.90;16.35;;;4.40;72.40;;;;;;5023258;28;20040;-62
2022/03/07 09:29:30;;;;;;;31.73;15.25;;;4.40;72.40;;;;;;5006295;28;20116;-66
2022/03/07 09:31:56;;;;;;;30.17;15.88;;;4.50;72.40;;;;;;5023916;28;20107;-64
2022/03/07 09:34:22;;;;;;;31.42;15.73;;;4.50;72.40;;;;;;5018326;28;20068;-63
2022/03/07 09:36:47;;;;;;;29.92;15.45;;;4.50;72.50;;;;;;5017365;28;20033;-64
2022/03/07 09:39:12;;;;;;;29.83;15.13;;;4.50;72.40;;;;;;5018003;28;20493;-64
2022/03/07 09:41:43;;;;;;;27.77;14.65;;;4.50;72.50;;;;;;5016485;28;20025;-64
2022/03/07 09:44:09;;;;;;;29.15;14.52;;;4.60;72.40;;;;;;5015836;28;20482;-63
2022/03/07 09:46:34;;;;;;;58.35;17.48;;;4.60;72.30;;;;;;5015293;28;20033;-63
2022/03/07 09:49:00;;;;;;;39.08;15.70;;;4.60;72.50;;;;;;5016381;28;20040;-62
2022/03/07 09:51:25;;;;;;;34.83;17.75;;;4.60;72.40;;;;;;5019181;28;20034;-63
2022/03/07 09:53:51;;;;;;;35.08;15.88;;;4.70;72.70;;;;;;5018120;28;20045;-64
2022/03/07 09:56:16;;;;;;;39.05;15.63;;;4.60;72.70;;;;;;4999324;28;20033;-64
2022/03/07 09:58:42;;;;;;;25.73;16.17;;;4.70;72.70;;;;;;5019692;28;20087;-62
2022/03/07 10:01:08;;;;;;;33.90;16.80;;;4.70;72.50;;;;;;5019409;28;20146;-64
2022/03/07 10:03:34;;;;;;;38.60;16.70;;;4.70;73.40;;;;;;5015769;28;20159;-64
2022/03/07 10:06:00;;;;;;;54.17;17.88;;;4.70;72.70;;;;;;5016750;28;20577;-63
2022/03/07 10:08:27;;;;;;;41.83;17.85;;;4.70;72.90;;;;;;5031559;28;20030;-62
2022/03/07 10:10:53;;;;;;;37.42;16.63;;;4.70;73.00;;;;;;5017143;28;20042;-64
2022/03/07 10:13:19;;;;;;;36.15;17.55;;;4.80;73.00;;;;;;4999480;28;20045;-62
2022/03/07 10:15:58;;;;;;;34.03;16.63;;;4.80;72.80;;;;;;5013101;28;20068;-64
2022/03/07 10:18:23;;;;;;;31.73;17.33;;;4.90;72.70;;;;;;5013928;28;20044;-62
2022/03/07 10:20:49;;;;;;;44.17;18.05;;;4.90;72.70;;;;;;5016195;28;20392;-62
2022/03/07 10:23:15;;;;;;;47.13;17.75;;;4.90;72.80;;;;;;4991818;28;20033;-62
2022/03/07 10:25:43;;;;;;;40.45;17.50;;;4.90;72.70;;;;;;5015595;28;20415;-63
2022/03/07 10:28:09;;;;;;;70.18;20.92;;;4.90;72.90;;;;;;5017223;28;20550;-64
2022/03/07 10:30:35;;;;;;;60.15;18.00;;;4.90;72.90;;;;;;5011883;28;20042;-63
2022/03/07 10:33:04;;;;;;;59.13;19.08;;;5.00;73.00;;;;;;5009630;28;20080;-63
2022/03/07 10:35:33;;;;;;;49.83;19.00;;;5.00;73.00;;;;;;5018182;28;20069;-63
2022/03/07 10:37:59;;;;;;;47.10;17.70;;;5.00;72.90;;;;;;4999992;28;20376;-64
2022/03/07 10:40:25;;;;;;;62.10;18.42;;;5.00;72.80;;;;;;5018271;28;20032;-64
2022/03/07 10:42:54;;;;;;;49.85;19.23;;;5.10;72.70;;;;;;5014377;28;20033;-63
2022/03/07 10:45:20;;;;;;;52.83;19.10;;;5.10;72.70;;;;;;5013616;28;20120;-61
2022/03/07 10:48:00;;;;;;;65.18;20.02;;;5.10;72.60;;;;;;5008452;28;20099;-62
2022/03/07 10:50:26;;;;;;;65.05;20.58;;;5.10;72.60;;;;;;5019657;28;20411;-62
2022/03/07 10:52:57;;;;;;;79.05;21.10;;;5.10;72.70;;;;;;5017735;28;20048;-63
2022/03/07 10:55:25;;;;;;;60.53;21.08;;;5.10;72.60;;;;;;5017770;28;20025;-62
2022/03/07 10:57:50;;;;;;;57.03;20.30;;;5.20;72.70;;;;;;5015929;28;20494;-62
2022/03/07 11:00:21;;;;;;;53.95;20.27;;;5.20;72.70;;;;;;5012473;28;20078;-63
2022/03/07 11:02:47;;;;;;;48.92;18.98;;;5.20;72.80;;;;;;5017985;28;20116;-64
2022/03/07 11:05:15;;;;;;;97.10;20.85;;;5.20;72.80;;;;;;5016484;28;20145;-64
2022/03/07 11:07:42;;;;;;;57.75;19.20;;;5.20;72.70;;;;;;5017089;28;20041;-64
2022/03/07 11:10:09;;;;;;;47.40;18.52;;;5.30;72.70;;;;;;5016961;28;20091;-64
2022/03/07 11:12:35;;;;;;;59.80;19.98;;;5.30;72.70;;;;;;5020196;28;20103;-64
2022/03/07 11:15:08;;;;;;;169.52;28.02;;;5.30;72.50;;;;;;5017388;28;20049;-64
2022/03/07 11:17:36;;;;;;;96.13;22.63;;;5.40;72.40;;;;;;4988044;28;20461;-61
2022/03/07 11:20:01;;;;;;;61.25;19.60;;;5.40;72.60;;;;;;5016634;28;20044;-61
2022/03/07 11:22:27;;;;;;;72.43;19.88;;;5.40;72.50;;;;;;5010474;28;20381;-63
2022/03/07 11:24:53;;;;;;;52.50;20.88;;;5.40;72.50;;;;;;5019705;28;20065;-62
2022/03/07 11:27:18;;;;;;;72.55;19.35;;;5.40;72.60;;;;;;5012070;28;20072;-60
2022/03/07 11:29:44;;;;;;;59.17;19.45;;;5.50;72.30;;;;;;5000332;28;20542;-64
2022/03/07 11:32:11;;;;;;;53.05;20.02;;;5.50;72.20;;;;;;5016924;28;20124;-62
2022/03/07 11:34:37;;;;;;;62.95;19.75;;;5.50;72.20;;;;;;5008650;28;20164;-63
2022/03/07 11:37:03;;;;;;;65.15;20.65;;;5.50;72.40;;;;;;5014034;28;20033;-62
2022/03/07 11:39:33;;;;;;;61.40;20.60;;;5.50;72.50;;;;;;5017448;28;20021;-63
2022/03/07 11:42:15;;;;;;;66.03;19.90;;;5.50;72.50;;;;;;5017932;28;20460;-63
2022/03/07 11:44:42;;;;;;;61.78;20.30;;;5.80;72.70;;;;;;5009766;28;20049;-61
2022/03/07 11:47:12;;;;;;;78.60;22.23;;;5.60;72.60;;;;;;4993081;28;20382;-63
2022/03/07 11:49:38;;;;;;;56.17;20.80;;;5.90;72.60;;;;;;5012023;28;20116;-61
2022/03/07 11:52:06;;;;;;;46.55;20.88;;;5.70;72.50;;;;;;5001545;28;20104;-62
2022/03/07 11:54:31;;;;;;;187.63;30.55;;;5.70;72.20;;;;;;4993277;28;20083;-61
2022/03/07 11:57:08;;;;;;;72.57;21.63;;;5.80;72.50;;;;;;5012517;28;20041;-62
2022/03/07 11:59:34;;;;;;;168.07;30.17;;;5.70;72.50;;;;;;5010923;28;20088;-63
2022/03/07 12:02:00;;;;;;;262.48;37.08;;;5.80;72.50;;;;;;5012728;28;20037;-63
2022/03/07 12:04:25;;;;;;;103.38;26.00;;;5.80;72.50;;;;;;4985987;28;20083;-63
2022/03/07 12:06:52;;;;;;;90.97;25.35;;;5.90;72.70;;;;;;5014247;28;20049;-61
2022/03/07 12:09:24;;;;;;;71.63;21.50;;;5.90;72.50;;;;;;5030879;28;20141;-63
2022/03/07 12:12:06;;;;;;;103.50;23.15;;;5.90;72.70;;;;;;5001859;28;20125;-63
2022/03/07 12:14:36;;;;;;;85.93;23.25;;;6.00;72.50;;;;;;5013376;28;20051;-63
2022/03/07 12:17:12;;;;;;;55.22;21.67;;;6.00;72.50;;;;;;5014816;28;20026;-60
2022/03/07 12:19:39;;;;;;;57.70;20.63;;;6.00;72.40;;;;;;5018292;28;20112;-62
2022/03/07 12:22:12;;;;;;;74.95;23.48;;;6.00;72.20;;;;;;5011725;28;20076;-64
2022/03/07 12:24:37;;;;;;;78.28;23.63;;;6.10;72.50;;;;;;4981013;28;20049;-62
2022/03/07 12:27:03;;;;;;;80.22;23.42;;;6.10;72.90;;;;;;5005718;28;20493;-62
2022/03/07 12:29:28;;;;;;;83.47;22.67;;;6.10;72.30;;;;;;5015118;28;20075;-63